Terminal Aerodrome Forecast
Issued by NWS

Home | Current Version | Previous Version | Text Only | Print | Product List | Glossary On
Versions: 1 2 3 4 5 6 7 8 9 10 11 12 13 14
000
FTUS42 TJSJ 032320
TAFJPS
TAF
TJPS 032320Z 0400/0424 10010G15KT P6SM FEW030
     FM041300 10015KT P6SM SCT250
     FM041500 14017KT P6SM FEW250
     FM042330 09008KT P6SM FEW030 SCT060
      AMD NOT SKED TIL 040300=

USA.gov is the U.S. government's official web portal to all federal, state and local government web resources and services.